Hartford, Connecticut
Traffic Map
Current Weather Conditions
Hartford, Connecticut
Clear
Clear

Feels Like: -1°
Wind Chill: -1° Ceiling: Unl
Heat Index: Visibility: 10mi
Dew Point: -13° Wind: 8mph
Humidity: 33% Direction: 40° (NE)
Pressure: 30.23in Gusts: 0mph
Raw Report DataKHFD 291553Z 04007KT 010V130 10SM CLR 02/M13 A3023 RMK AO2 SLP238 T00221128
Traffic Incident Summary
Active as of:
Severity:
Category:
InformationThere was an issue retrieving the traffic information for this location. Please try a different location or try again shortly.
Advertisements
Track Severe Weather on mobile